createdAt,value
2023-05-10T00:01:21.839Z,14.17
2023-05-10T00:04:28.184Z,14.16
2023-05-10T00:07:30.541Z,14.15
2023-05-10T00:10:32.629Z,14.15
2023-05-10T00:13:34.711Z,14.14
2023-05-10T00:16:36.375Z,14.14
2023-05-10T00:19:38.719Z,14.14
2023-05-10T00:22:40.438Z,14.15
2023-05-10T00:25:43.672Z,14.12
2023-05-10T00:28:45.273Z,14.14
2023-05-10T00:31:46.889Z,14.13
2023-05-10T00:34:48.975Z,14.11
2023-05-10T00:37:51.068Z,14.12
2023-05-10T00:40:53.143Z,14.07
2023-05-10T00:44:03.106Z,14.08
2023-05-10T00:47:05.640Z,14.04
2023-05-10T00:50:08.027Z,14.03
2023-05-10T00:53:10.199Z,14.03
2023-05-10T00:56:13.285Z,14.03
2023-05-10T00:59:17.801Z,14.02
2023-05-10T01:02:19.507Z,13.98
2023-05-10T01:05:21.276Z,14.02
2023-05-10T01:08:23.327Z,13.99
2023-05-10T01:11:26.381Z,13.98
2023-05-10T01:14:29.352Z,13.94
2023-05-10T01:17:32.585Z,13.95
2023-05-10T01:20:44.800Z,13.93
2023-05-10T01:24:20.540Z,13.95
2023-05-10T01:27:31.515Z,13.92
2023-05-10T01:30:45.791Z,13.90
2023-05-10T01:33:59.999Z,13.87
2023-05-10T01:37:19.463Z,13.86
2023-05-10T01:40:31.330Z,13.85
2023-05-10T01:43:58.070Z,13.83
2023-05-10T01:47:07.667Z,13.82
2023-05-10T01:50:18.649Z,13.82
2023-05-10T01:53:22.851Z,13.78
2023-05-10T01:56:28.951Z,13.79
2023-05-10T01:59:37.357Z,13.76
2023-05-10T02:02:43.266Z,13.76
2023-05-10T02:05:48.230Z,13.73
2023-05-10T02:08:52.597Z,13.70
2023-05-10T02:11:56.952Z,13.63
2023-05-10T02:15:03.095Z,13.64
2023-05-10T02:18:07.042Z,13.61
2023-05-10T02:21:09.850Z,13.62
2023-05-10T02:24:16.662Z,13.58
2023-05-10T02:27:20.157Z,13.57
2023-05-10T02:30:24.074Z,13.56
2023-05-10T02:33:27.466Z,13.54
2023-05-10T02:36:30.772Z,13.52
2023-05-10T02:39:33.754Z,13.48
2023-05-10T02:42:38.771Z,13.44
2023-05-10T02:45:42.537Z,13.38
2023-05-10T02:48:45.324Z,13.34
2023-05-10T02:51:52.478Z,13.38
2023-05-10T02:54:57.646Z,13.38
2023-05-10T02:58:02.154Z,13.36
2023-05-10T03:01:04.081Z,13.35
2023-05-10T03:04:07.278Z,13.31
2023-05-10T03:07:09.583Z,13.33
2023-05-10T03:10:12.677Z,13.31
2023-05-10T03:13:30.568Z,13.29
2023-05-10T03:16:59.867Z,13.28
2023-05-10T03:20:08.883Z,13.26
2023-05-10T03:23:17.374Z,13.26
2023-05-10T03:26:26.436Z,13.22
2023-05-10T03:29:34.877Z,13.21
2023-05-10T03:32:38.579Z,13.22
2023-05-10T03:35:41.324Z,13.20
2023-05-10T03:38:43.603Z,13.21
2023-05-10T03:41:46.087Z,13.19
2023-05-10T03:44:50.177Z,13.22
2023-05-10T03:47:52.315Z,13.23
2023-05-10T03:50:54.734Z,13.21
2023-05-10T03:53:56.685Z,13.17
2023-05-10T03:56:58.928Z,13.13
2023-05-10T04:00:02.608Z,13.12
2023-05-10T04:03:15.996Z,13.06
2023-05-10T04:06:18.436Z,13.07
2023-05-10T04:09:20.996Z,13.03
2023-05-10T04:12:23.257Z,12.91
2023-05-10T04:15:25.358Z,12.90
2023-05-10T04:18:27.073Z,12.87
2023-05-10T04:21:28.700Z,12.80
2023-05-10T04:24:30.774Z,12.77
2023-05-10T04:27:32.913Z,12.72
2023-05-10T04:30:34.981Z,12.70
2023-05-10T04:33:37.781Z,12.64
2023-05-10T04:36:39.828Z,12.63
2023-05-10T04:39:42.429Z,12.60
2023-05-10T04:42:44.790Z,12.58
2023-05-10T04:45:46.593Z,12.58
2023-05-10T04:48:48.309Z,12.56
2023-05-10T04:51:49.968Z,12.55
2023-05-10T04:54:52.372Z,12.55
2023-05-10T04:57:57.760Z,12.55
2023-05-10T05:01:08.056Z,12.58
2023-05-10T05:04:09.722Z,12.61
2023-05-10T05:07:11.755Z,12.64
2023-05-10T05:10:14.096Z,12.64
2023-05-10T05:13:16.492Z,12.68
2023-05-10T05:16:18.243Z,12.66
2023-05-10T05:19:19.939Z,12.69
2023-05-10T05:22:28.269Z,12.68
2023-05-10T05:25:30.373Z,12.68
2023-05-10T05:28:34.966Z,12.71
2023-05-10T05:31:37.215Z,12.73
2023-05-10T05:34:39.332Z,12.74
2023-05-10T05:37:41.620Z,12.72
2023-05-10T05:40:43.323Z,12.73
2023-05-10T05:43:44.973Z,12.75
2023-05-10T05:46:46.584Z,12.80
2023-05-10T05:49:48.211Z,12.81
2023-05-10T05:52:50.316Z,12.82
2023-05-10T05:55:56.737Z,12.87
2023-05-10T05:58:58.391Z,12.89
2023-05-10T06:02:00.188Z,12.85
2023-05-10T06:05:02.031Z,12.91
2023-05-10T06:08:03.735Z,12.95
2023-05-10T06:11:06.478Z,12.95
2023-05-10T06:14:09.013Z,12.96
2023-05-10T06:17:11.174Z,12.98
2023-05-10T06:20:13.387Z,13.02
2023-05-10T06:23:15.781Z,13.00
2023-05-10T06:26:17.878Z,13.01
2023-05-10T06:29:19.517Z,13.05
2023-05-10T06:32:21.211Z,13.09
2023-05-10T06:35:22.886Z,13.12
2023-05-10T06:38:24.838Z,13.16
2023-05-10T06:41:26.382Z,13.18
2023-05-10T06:44:28.236Z,13.20
2023-05-10T06:47:30.345Z,13.23
2023-05-10T06:50:32.038Z,13.25
2023-05-10T06:53:33.788Z,13.29
2023-05-10T06:56:35.408Z,13.36
2023-05-10T06:59:37.666Z,13.39
2023-05-10T07:02:39.387Z,13.43
2023-05-10T07:05:41.548Z,13.43
2023-05-10T07:08:43.255Z,13.49
2023-05-10T07:11:44.904Z,13.50
2023-05-10T07:14:46.838Z,13.54
2023-05-10T07:17:48.499Z,13.58
2023-05-10T07:20:50.900Z,13.63
2023-05-10T07:23:52.605Z,13.75
2023-05-10T07:26:54.651Z,13.83
2023-05-10T07:29:57.538Z,13.93
2023-05-10T07:33:00.230Z,14.02
2023-05-10T07:36:02.370Z,14.05
2023-05-10T07:39:04.676Z,14.04
2023-05-10T07:42:06.919Z,14.08
2023-05-10T07:45:09.595Z,14.12
2023-05-10T07:48:12.167Z,14.16
2023-05-10T07:51:13.882Z,14.11
2023-05-10T07:54:15.577Z,14.17
2023-05-10T07:57:18.595Z,14.17
2023-05-10T08:00:21.502Z,14.23
2023-05-10T08:03:23.276Z,14.24
2023-05-10T08:06:29.091Z,14.26
2023-05-10T08:09:30.750Z,14.28
2023-05-10T08:12:32.755Z,14.25
2023-05-10T08:15:34.390Z,14.27
2023-05-10T08:18:36.138Z,14.31
2023-05-10T08:21:38.326Z,14.37
2023-05-10T08:24:40.077Z,14.36
2023-05-10T08:27:42.147Z,14.40
2023-05-10T08:30:44.338Z,14.46
2023-05-10T08:33:46.010Z,14.51
2023-05-10T08:36:48.165Z,14.53
2023-05-10T08:39:50.404Z,14.57
2023-05-10T08:42:59.933Z,14.62
2023-05-10T08:46:04.119Z,14.64
2023-05-10T08:49:11.258Z,14.65
2023-05-10T08:52:16.003Z,14.71
2023-05-10T08:55:18.798Z,14.74
2023-05-10T08:58:21.829Z,14.68
2023-05-10T09:01:26.493Z,14.67
2023-05-10T09:04:30.451Z,14.71
2023-05-10T09:07:34.806Z,14.78
2023-05-10T09:10:39.479Z,14.79
2023-05-10T09:13:43.324Z,14.86
2023-05-10T09:16:45.264Z,14.91
2023-05-10T09:19:47.446Z,14.94
2023-05-10T09:22:49.216Z,15.02
2023-05-10T09:26:05.538Z,15.01
2023-05-10T09:29:10.508Z,15.02
2023-05-10T09:32:13.804Z,15.04
2023-05-10T09:35:18.422Z,15.02
2023-05-10T09:38:20.758Z,15.01
2023-05-10T09:41:24.372Z,15.03
2023-05-10T09:44:27.256Z,15.14
2023-05-10T09:47:28.918Z,15.23
2023-05-10T09:50:31.395Z,15.26
2023-05-10T09:53:33.472Z,15.15
2023-05-10T09:56:36.924Z,15.00
2023-05-10T09:59:44.259Z,14.92
2023-05-10T10:02:48.834Z,14.88
2023-05-10T10:05:50.712Z,14.80
2023-05-10T10:08:56.744Z,14.73
2023-05-10T10:12:01.085Z,14.68
2023-05-10T10:15:02.989Z,14.60
2023-05-10T10:18:06.720Z,14.58
2023-05-10T10:21:11.630Z,14.61
2023-05-10T10:24:13.276Z,14.60
2023-05-10T10:27:27.766Z,14.49
2023-05-10T10:30:52.230Z,14.33
2023-05-10T10:34:02.506Z,14.25
2023-05-10T10:37:07.942Z,14.24
2023-05-10T10:40:33.568Z,14.16
2023-05-10T10:43:36.989Z,14.17
2023-05-10T10:47:02.211Z,14.18
2023-05-10T10:50:07.192Z,14.23
2023-05-10T10:53:13.160Z,14.27
2023-05-10T10:56:16.287Z,14.31
2023-05-10T10:59:28.848Z,14.37
2023-05-10T11:02:40.185Z,14.42
2023-05-10T11:05:44.313Z,14.41
2023-05-10T11:08:46.112Z,14.43
2023-05-10T11:11:59.859Z,14.48
2023-05-10T11:15:01.981Z,14.52
2023-05-10T11:18:20.311Z,14.60
2023-05-10T11:21:22.078Z,14.67
2023-05-10T11:24:29.027Z,14.72
2023-05-10T11:27:31.114Z,14.78
2023-05-10T11:30:33.421Z,14.83
2023-05-10T11:33:49.705Z,14.94
2023-05-10T11:36:54.858Z,14.96
2023-05-10T11:39:57.002Z,14.99
2023-05-10T11:42:58.641Z,15.00
2023-05-10T11:46:01.203Z,15.02
2023-05-10T11:49:05.868Z,15.01
2023-05-10T11:52:08.819Z,14.99
2023-05-10T11:55:11.463Z,14.95
2023-05-10T11:58:13.235Z,15.00
2023-05-10T12:01:15.682Z,14.98
2023-05-10T12:04:17.798Z,14.95
2023-05-10T12:07:19.673Z,14.90
2023-05-10T12:10:27.434Z,14.87
2023-05-10T12:13:29.881Z,14.88
2023-05-10T12:16:31.850Z,14.88
2023-05-10T12:19:41.027Z,14.93
2023-05-10T12:22:46.482Z,14.95
2023-05-10T12:25:48.439Z,14.94
2023-05-10T12:28:50.087Z,14.83
2023-05-10T12:31:52.628Z,14.70
2023-05-10T12:34:54.394Z,14.60
2023-05-10T12:37:56.404Z,14.51
2023-05-10T12:41:00.236Z,14.42
2023-05-10T12:44:02.543Z,14.37
2023-05-10T12:47:04.666Z,14.36
2023-05-10T12:50:06.824Z,14.37
2023-05-10T12:53:09.482Z,14.41
2023-05-10T12:56:12.398Z,14.44
2023-05-10T12:59:14.536Z,14.46
2023-05-10T13:02:18.796Z,14.45
2023-05-10T13:05:20.979Z,14.51
2023-05-10T13:08:23.195Z,14.49
2023-05-10T13:11:25.124Z,14.43
2023-05-10T13:14:27.257Z,14.33
2023-05-10T13:17:30.636Z,14.20
2023-05-10T13:20:33.213Z,14.07
2023-05-10T13:23:36.030Z,13.94
2023-05-10T13:26:38.213Z,13.82
2023-05-10T13:29:39.755Z,13.75
2023-05-10T13:32:42.508Z,13.67
2023-05-10T13:35:44.837Z,13.60
2023-05-10T13:38:47.207Z,13.60
2023-05-10T13:41:49.460Z,13.53
2023-05-10T13:44:51.564Z,13.53
2023-05-10T13:47:53.233Z,13.48
2023-05-10T13:50:55.917Z,13.46
2023-05-10T13:53:57.525Z,13.42
2023-05-10T13:57:00.618Z,13.47
2023-05-10T14:00:03.250Z,13.45
2023-05-10T14:03:12.226Z,13.44
2023-05-10T14:06:14.721Z,13.44
2023-05-10T14:09:16.856Z,13.49
2023-05-10T14:12:18.461Z,13.48
2023-05-10T14:15:21.081Z,13.37
2023-05-10T14:18:23.525Z,13.25
2023-05-10T14:21:25.280Z,13.08
2023-05-10T14:24:27.354Z,12.95
2023-05-10T14:27:28.884Z,12.83
2023-05-10T14:30:31.551Z,12.72
2023-05-10T14:33:33.741Z,12.63
2023-05-10T14:36:35.354Z,12.57
2023-05-10T14:39:37.367Z,12.54
2023-05-10T14:42:38.959Z,12.49
2023-05-10T14:45:40.958Z,12.42
2023-05-10T14:48:42.634Z,12.38
2023-05-10T14:51:46.035Z,12.35
2023-05-10T14:54:48.639Z,12.31
2023-05-10T14:57:51.651Z,12.27
2023-05-10T15:00:54.181Z,12.22
2023-05-10T15:03:56.944Z,12.21
2023-05-10T15:07:00.630Z,12.20
2023-05-10T15:10:03.614Z,12.16
2023-05-10T15:13:06.310Z,12.13
2023-05-10T15:16:08.475Z,12.14
2023-05-10T15:19:11.327Z,12.12
2023-05-10T15:22:12.969Z,12.11
2023-05-10T15:25:15.994Z,12.13
2023-05-10T15:28:17.766Z,12.10
2023-05-10T15:31:19.877Z,12.09
2023-05-10T15:34:22.610Z,12.08
2023-05-10T15:37:25.415Z,12.07
2023-05-10T15:40:27.964Z,11.99
2023-05-10T15:43:29.658Z,11.94
2023-05-10T15:46:31.641Z,11.86
2023-05-10T15:49:33.962Z,11.81
2023-05-10T15:52:36.170Z,11.79
2023-05-10T15:55:37.776Z,11.73
2023-05-10T15:58:41.033Z,11.70
2023-05-10T16:01:43.266Z,11.69
2023-05-10T16:04:45.110Z,11.66
2023-05-10T16:07:47.614Z,11.65
2023-05-10T16:10:51.214Z,11.61
2023-05-10T16:13:53.744Z,11.61
2023-05-10T16:16:56.383Z,11.63
2023-05-10T16:19:58.236Z,11.60
2023-05-10T16:23:06.662Z,11.59
2023-05-10T16:26:09.345Z,11.60
2023-05-10T16:29:11.177Z,11.59
2023-05-10T16:32:12.834Z,11.60
2023-05-10T16:35:15.770Z,11.57
2023-05-10T16:38:17.960Z,11.58
2023-05-10T16:41:20.101Z,11.56
2023-05-10T16:44:25.686Z,11.58
2023-05-10T16:47:28.173Z,11.58
2023-05-10T16:50:30.444Z,11.56
2023-05-10T16:53:32.571Z,11.53
2023-05-10T16:56:34.149Z,11.51
2023-05-10T16:59:36.200Z,11.48
2023-05-10T17:02:39.416Z,11.49
2023-05-10T17:05:41.344Z,11.46
2023-05-10T17:08:44.486Z,11.45
2023-05-10T17:11:46.705Z,11.46
2023-05-10T17:14:48.396Z,11.45
2023-05-10T17:17:50.772Z,11.46
2023-05-10T17:20:52.514Z,11.45
2023-05-10T17:23:54.621Z,11.42
2023-05-10T17:26:57.400Z,11.41
2023-05-10T17:29:59.520Z,11.41
2023-05-10T17:33:02.159Z,11.38
2023-05-10T17:36:04.493Z,11.36
2023-05-10T17:39:06.371Z,11.38
2023-05-10T17:42:08.569Z,11.38
2023-05-10T17:45:10.854Z,11.34
2023-05-10T17:48:13.478Z,11.27
2023-05-10T17:51:15.677Z,11.28
2023-05-10T17:54:17.946Z,11.31
2023-05-10T17:57:20.792Z,11.29
2023-05-10T18:00:22.427Z,11.27
2023-05-10T18:03:24.681Z,11.25
2023-05-10T18:06:26.465Z,11.22
2023-05-10T18:09:29.503Z,11.20
2023-05-10T18:12:31.866Z,11.17
2023-05-10T18:15:34.086Z,11.17
2023-05-10T18:18:36.535Z,11.13
2023-05-10T18:21:39.096Z,11.13
2023-05-10T18:24:40.755Z,11.10
2023-05-10T18:27:43.464Z,11.07
2023-05-10T18:30:45.490Z,11.06
2023-05-10T18:33:47.126Z,11.04
2023-05-10T18:36:48.772Z,10.99
2023-05-10T18:39:50.795Z,10.98
2023-05-10T18:42:52.908Z,10.95
2023-05-10T18:45:55.015Z,10.94
2023-05-10T18:48:56.643Z,10.93
2023-05-10T18:52:01.152Z,10.92
2023-05-10T18:55:03.800Z,10.90
2023-05-10T18:58:05.940Z,10.85
2023-05-10T19:01:08.028Z,10.87
2023-05-10T19:04:10.206Z,10.86
2023-05-10T19:07:12.419Z,10.83
2023-05-10T19:10:14.587Z,10.83
2023-05-10T19:13:17.242Z,10.82
2023-05-10T19:16:20.329Z,10.81
2023-05-10T19:19:24.245Z,10.81
2023-05-10T19:22:44.993Z,10.82
2023-05-10T19:25:51.024Z,10.78
2023-05-10T19:28:53.710Z,10.78
2023-05-10T19:31:55.759Z,10.74
2023-05-10T19:34:58.150Z,10.74
2023-05-10T19:38:00.617Z,10.75
2023-05-10T19:41:02.338Z,10.75
2023-05-10T19:44:35.276Z,10.74
2023-05-10T19:47:37.604Z,10.77
2023-05-10T19:50:39.729Z,10.79
2023-05-10T19:53:44.730Z,10.78
2023-05-10T19:56:46.419Z,10.75
2023-05-10T19:59:48.602Z,10.76
2023-05-10T20:02:51.728Z,10.74
2023-05-10T20:05:53.964Z,10.74
2023-05-10T20:08:55.874Z,10.75
2023-05-10T20:11:58.312Z,10.75
2023-05-10T20:15:00.410Z,10.73
2023-05-10T20:18:04.108Z,10.72
2023-05-10T20:21:06.990Z,10.73
2023-05-10T20:24:09.788Z,10.72
2023-05-10T20:27:11.691Z,10.70
2023-05-10T20:30:13.323Z,10.69
2023-05-10T20:33:15.790Z,10.66
2023-05-10T20:36:17.926Z,10.66
2023-05-10T20:39:20.002Z,10.65
2023-05-10T20:42:22.685Z,10.64
2023-05-10T20:45:24.901Z,10.65
2023-05-10T20:48:26.502Z,10.66
2023-05-10T20:51:30.379Z,10.66
2023-05-10T20:54:32.412Z,10.64
2023-05-10T20:57:33.999Z,10.67
2023-05-10T21:00:35.598Z,10.67
2023-05-10T21:03:38.183Z,10.68
2023-05-10T21:06:39.759Z,10.69
2023-05-10T21:09:41.835Z,10.68
2023-05-10T21:12:43.430Z,10.68
2023-05-10T21:15:45.604Z,10.68
2023-05-10T21:18:47.780Z,10.70
2023-05-10T21:21:49.482Z,10.67
2023-05-10T21:24:51.567Z,10.67
2023-05-10T21:27:53.219Z,10.65
2023-05-10T21:30:55.899Z,10.65
2023-05-10T21:33:58.330Z,10.65
2023-05-10T21:37:00.061Z,10.66
2023-05-10T21:40:01.709Z,10.65
2023-05-10T21:43:04.770Z,10.64
2023-05-10T21:46:07.417Z,10.65
2023-05-10T21:49:09.535Z,10.64
2023-05-10T21:52:11.759Z,10.63
2023-05-10T21:55:13.990Z,10.63
2023-05-10T21:58:16.485Z,10.62
2023-05-10T22:01:18.950Z,10.62
2023-05-10T22:04:21.305Z,10.61
2023-05-10T22:07:22.929Z,10.60
2023-05-10T22:10:25.437Z,10.60
2023-05-10T22:13:27.095Z,10.54
2023-05-10T22:16:29.417Z,10.57
2023-05-10T22:19:31.448Z,10.57
2023-05-10T22:22:34.597Z,10.54
2023-05-10T22:25:36.194Z,10.55
2023-05-10T22:28:39.114Z,10.57
2023-05-10T22:31:41.334Z,10.57
2023-05-10T22:34:43.550Z,10.55
2023-05-10T22:37:46.375Z,10.56
2023-05-10T22:40:48.404Z,10.55
2023-05-10T22:43:50.467Z,10.55
2023-05-10T22:46:52.685Z,10.56
2023-05-10T22:49:56.106Z,10.55
2023-05-10T22:52:58.228Z,10.55
2023-05-10T22:56:00.626Z,10.54
2023-05-10T22:59:02.701Z,10.53
2023-05-10T23:02:04.969Z,10.53
2023-05-10T23:05:07.692Z,10.49
2023-05-10T23:08:09.585Z,10.53
2023-05-10T23:11:11.729Z,10.53
2023-05-10T23:14:14.053Z,10.50
2023-05-10T23:17:16.383Z,10.51
2023-05-10T23:20:18.226Z,10.49
2023-05-10T23:23:20.612Z,10.48
2023-05-10T23:26:22.791Z,10.46
2023-05-10T23:29:26.298Z,10.46
2023-05-10T23:32:28.016Z,10.43
2023-05-10T23:35:30.679Z,10.44
2023-05-10T23:38:32.253Z,10.42
2023-05-10T23:41:34.800Z,10.40
2023-05-10T23:44:36.850Z,10.40
2023-05-10T23:47:38.433Z,10.40
2023-05-10T23:50:44.985Z,10.39
2023-05-10T23:53:47.048Z,10.38
2023-05-10T23:56:51.320Z,10.39
2023-05-10T23:59:53.367Z,10.38
